Croweburg, Kansas
Current Conditions -  °F | °C
As of 9:15 AM on Thursday 30 Oct 2014 (Local Time) from KPTS Reporting Station
Scattered Clouds Scattered Clouds  
Wind Chill: 56°   Ceiling: Unl
Heat Index: 56°   Visibility: 10mi
Dew Point: 44°   Wind: 10mph
Humidity: 65%   Direction: 230°SW
Pressure: 30.05"   Gusts: NA
Location:  37.5542°N, 94.6826°W
Report Text: KPTS 301415Z AUTO 23009KT 10SM SCT110 13/07 A3005 RMK AO2 T01340069
Loading
Personal Weather Stations






























Interactive Weather Map
Tropical Storm Tracking
New forecast layout! Learn more

10-Day Weather Forecast

Advertisements
Track Severe Weather on mobile